Terminal Aerodrome Forecast
Issued by NWS Mobile, AL

Home | Current Version | Previous Version | Text Only | Print | Product List | Glossary On
Versions: 1 2 3 4 5 6 7 8 9 10 11 12 13 14 15 16 17 18 19 20 21 22 23 24 25 26
000
FTUS44 KMOB 150500 RRA
TAFPNS
TAF
KPNS 150548Z 1506/1606 02003KT P6SM SCT025
     FM151300 15006KT P6SM VCSH SCT030
     FM151800 17009KT P6SM VCTS BKN035CB BKN080
      TEMPO 1519/1523 3SM TSRA BKN020CB
     FM160100 19004KT P6SM VCTS SCT040CB SCT100=

USA.gov is the U.S. government's official web portal to all federal, state and local government web resources and services.